createdAt,value
2023-01-09T00:02:22.190Z,88.59
2023-01-09T00:04:50.115Z,88.44
2023-01-09T00:07:18.203Z,88.85
2023-01-09T00:09:46.159Z,88.88
2023-01-09T00:12:14.134Z,88.77
2023-01-09T00:14:46.231Z,88.89
2023-01-09T00:20:07.737Z,88.15
2023-01-09T00:26:05.475Z,88.55
2023-01-09T00:28:33.391Z,88.57
2023-01-09T00:34:05.088Z,89.03
2023-01-09T00:36:58.096Z,89.20
2023-01-09T00:39:26.141Z,88.86
2023-01-09T00:41:56.075Z,88.66
2023-01-09T00:44:55.107Z,88.80
2023-01-09T00:47:27.859Z,89.25
2023-01-09T00:50:00.764Z,89.20
2023-01-09T00:55:24.451Z,89.46
2023-01-09T00:57:52.132Z,89.30
2023-01-09T01:00:24.242Z,89.12
2023-01-09T01:02:52.170Z,89.30
2023-01-09T01:05:39.319Z,89.78
2023-01-09T01:08:13.512Z,89.60
2023-01-09T01:10:43.720Z,89.49
2023-01-09T01:16:06.698Z,89.79
2023-01-09T01:18:39.150Z,89.53
2023-01-09T01:21:12.549Z,89.36
2023-01-09T01:23:46.239Z,89.16
2023-01-09T01:26:16.132Z,89.10
2023-01-09T01:28:44.542Z,89.34
2023-01-09T01:31:17.668Z,89.10
2023-01-09T01:36:38.291Z,89.58
2023-01-09T01:39:06.141Z,89.54
2023-01-09T01:41:34.113Z,89.72
2023-01-09T01:44:12.876Z,89.50
2023-01-09T01:46:42.131Z,89.26
2023-01-09T01:49:15.204Z,89.39
2023-01-09T01:52:10.731Z,89.10
2023-01-09T01:54:38.299Z,88.95
2023-01-09T01:57:07.117Z,88.96
2023-01-09T02:06:00.126Z,89.32
2023-01-09T02:08:32.489Z,89.48
2023-01-09T02:11:01.120Z,89.78
2023-01-09T02:13:28.985Z,89.81
2023-01-09T02:16:13.346Z,89.93
2023-01-09T02:19:03.524Z,89.84
2023-01-09T02:22:14.891Z,89.68
2023-01-09T02:25:17.455Z,90.00
2023-01-09T02:27:59.473Z,90.09
2023-01-09T02:30:48.951Z,90.12
2023-01-09T02:33:33.641Z,90.05
2023-01-09T02:42:17.627Z,90.07
2023-01-09T02:47:44.606Z,89.90
2023-01-09T02:50:31.015Z,90.14
2023-01-09T02:53:28.313Z,90.62
2023-01-09T02:56:24.617Z,90.88
2023-01-09T02:59:26.988Z,90.36
2023-01-09T03:02:29.551Z,90.65
2023-01-09T03:05:11.660Z,90.94
2023-01-09T03:07:55.712Z,90.77
2023-01-09T03:14:09.129Z,90.60
2023-01-09T03:16:38.213Z,90.60
2023-01-09T03:19:16.331Z,90.34
2023-01-09T03:22:09.358Z,90.34
2023-01-09T03:24:47.164Z,90.21
2023-01-09T03:27:14.528Z,90.16
2023-01-09T03:29:47.205Z,90.13
2023-01-09T03:32:14.153Z,90.22
2023-01-09T03:34:42.190Z,90.06
2023-01-09T03:37:10.110Z,90.36
2023-01-09T03:39:38.112Z,89.87
2023-01-09T03:42:32.134Z,90.11
2023-01-09T03:45:00.116Z,90.06
2023-01-09T03:47:28.111Z,90.21
2023-01-09T03:49:56.095Z,90.02
2023-01-09T03:52:28.110Z,90.16
2023-01-09T03:54:56.094Z,90.17
2023-01-09T03:57:24.340Z,89.96
2023-01-09T04:00:19.658Z,90.00
2023-01-09T04:05:50.365Z,89.87
2023-01-09T04:08:19.085Z,89.66
2023-01-09T04:10:47.561Z,89.69
2023-01-09T04:13:16.340Z,89.80
2023-01-09T04:15:44.352Z,89.77
2023-01-09T04:18:17.384Z,89.93
2023-01-09T04:20:46.990Z,89.99
2023-01-09T04:23:19.343Z,90.38
2023-01-09T04:25:47.592Z,90.55
2023-01-09T04:28:16.167Z,90.19
2023-01-09T04:31:10.271Z,89.94
2023-01-09T04:33:38.105Z,90.06
2023-01-09T04:36:06.996Z,90.30
2023-01-09T04:38:34.123Z,90.25
2023-01-09T04:41:44.555Z,90.32
2023-01-09T04:44:17.131Z,90.15
2023-01-09T04:47:10.126Z,90.49
2023-01-09T04:49:38.106Z,90.14
2023-01-09T04:52:11.372Z,90.21
2023-01-09T04:54:44.099Z,90.31
2023-01-09T04:57:21.538Z,90.33
2023-01-09T04:59:52.052Z,90.05
2023-01-09T05:02:20.141Z,90.45
2023-01-09T05:04:48.487Z,90.70
2023-01-09T05:07:21.168Z,90.33
2023-01-09T05:09:48.097Z,90.68
2023-01-09T05:12:16.184Z,90.50
2023-01-09T05:15:10.560Z,90.54
2023-01-09T05:20:30.101Z,90.22
2023-01-09T05:23:46.448Z,90.68
2023-01-09T05:26:19.518Z,90.73
2023-01-09T05:28:48.118Z,90.91
2023-01-09T05:31:19.891Z,90.82
2023-01-09T05:34:12.173Z,90.80
2023-01-09T05:36:40.219Z,90.60
2023-01-09T05:39:08.176Z,91.24
2023-01-09T05:41:36.102Z,91.00
2023-01-09T05:44:04.952Z,91.64
2023-01-09T05:46:32.431Z,91.36
2023-01-09T05:49:00.120Z,91.56
2023-01-09T05:54:20.138Z,91.37
2023-01-09T05:56:50.486Z,91.39
2023-01-09T05:59:20.234Z,91.09
2023-01-09T06:01:48.169Z,91.66
2023-01-09T06:04:16.195Z,91.33
2023-01-09T06:06:50.747Z,91.06
2023-01-09T06:09:18.097Z,91.36
2023-01-09T06:11:46.123Z,91.33
2023-01-09T06:14:19.098Z,91.52
2023-01-09T06:16:46.119Z,91.70
2023-01-09T06:19:14.138Z,91.70
2023-01-09T06:22:06.075Z,91.88
2023-01-09T06:24:34.153Z,91.67
2023-01-09T06:27:06.748Z,91.25
2023-01-09T06:29:39.107Z,90.90
2023-01-09T06:32:06.539Z,90.91
2023-01-09T06:34:34.246Z,91.20
2023-01-09T06:37:02.171Z,90.92
2023-01-09T06:39:30.099Z,90.87
2023-01-09T06:41:58.181Z,90.72
2023-01-09T06:44:26.109Z,90.48
2023-01-09T06:46:54.151Z,90.07
2023-01-09T06:52:16.106Z,89.49
2023-01-09T06:54:44.100Z,89.40
2023-01-09T06:57:12.172Z,89.18
2023-01-09T06:59:40.093Z,89.08
2023-01-09T07:02:19.012Z,89.07
2023-01-09T07:04:46.283Z,88.96
2023-01-09T07:07:14.819Z,88.94
2023-01-09T07:12:34.229Z,88.98
2023-01-09T07:15:02.272Z,89.35
2023-01-09T07:17:30.099Z,89.07
2023-01-09T07:20:03.787Z,88.96
2023-01-09T07:22:32.146Z,88.88
2023-01-09T07:27:52.117Z,89.03
2023-01-09T07:30:20.179Z,88.83
2023-01-09T07:32:48.094Z,88.82
2023-01-09T07:35:40.112Z,88.84
2023-01-09T07:38:08.146Z,88.88
2023-01-09T07:40:41.183Z,88.81
2023-01-09T07:43:08.087Z,88.95
2023-01-09T07:45:36.107Z,89.68
2023-01-09T07:48:04.399Z,89.61
2023-01-09T07:50:37.174Z,89.56
2023-01-09T07:53:30.183Z,90.53
2023-01-09T07:56:03.208Z,90.69
2023-01-09T07:58:36.104Z,90.35
2023-01-09T08:01:04.709Z,91.03
2023-01-09T08:03:33.476Z,90.93
2023-01-09T08:06:31.184Z,91.46
2023-01-09T08:08:59.004Z,91.60
2023-01-09T08:11:26.451Z,91.68
2023-01-09T08:13:54.139Z,91.45
2023-01-09T08:16:22.189Z,91.52
2023-01-09T08:18:50.114Z,91.93
2023-01-09T08:21:23.136Z,91.76
2023-01-09T08:23:50.180Z,91.39
2023-01-09T08:26:19.562Z,91.48
2023-01-09T08:28:48.437Z,91.51
2023-01-09T08:31:16.217Z,91.43
2023-01-09T08:33:53.516Z,91.39
2023-01-09T08:36:22.133Z,91.52
2023-01-09T08:38:54.191Z,91.47
2023-01-09T08:41:40.776Z,91.37
2023-01-09T08:44:26.764Z,91.59
2023-01-09T08:47:06.277Z,91.13
2023-01-09T08:49:41.147Z,91.11
2023-01-09T08:52:13.745Z,90.64
2023-01-09T08:55:11.629Z,90.82
2023-01-09T08:57:50.663Z,90.66
2023-01-09T09:00:24.995Z,90.83
2023-01-09T09:03:18.123Z,90.61
2023-01-09T09:05:46.927Z,90.38
2023-01-09T09:08:14.297Z,90.71
2023-01-09T09:10:42.372Z,90.46
2023-01-09T09:13:10.326Z,90.68
2023-01-09T09:18:30.117Z,90.26
2023-01-09T09:21:03.139Z,90.37
2023-01-09T09:23:30.088Z,90.58
2023-01-09T09:29:14.221Z,90.59
2023-01-09T09:31:42.163Z,90.52
2023-01-09T09:34:21.343Z,90.63
2023-01-09T09:36:53.113Z,90.39
2023-01-09T09:39:20.116Z,90.18
2023-01-09T09:42:43.641Z,90.18
2023-01-09T09:45:23.851Z,89.85
2023-01-09T09:48:35.132Z,89.72
2023-01-09T09:51:28.446Z,90.27
2023-01-09T09:54:18.356Z,90.08
2023-01-09T09:56:56.666Z,90.17
2023-01-09T09:59:44.187Z,90.70
2023-01-09T10:02:38.036Z,90.38
2023-01-09T10:05:17.610Z,90.39
2023-01-09T10:07:49.920Z,90.50
2023-01-09T10:10:37.058Z,90.36
2023-01-09T10:13:35.463Z,90.09
2023-01-09T10:16:22.252Z,90.52
2023-01-09T10:19:28.187Z,90.31
2023-01-09T10:22:28.353Z,90.64
2023-01-09T10:25:21.005Z,90.55
2023-01-09T10:28:08.212Z,90.70
2023-01-09T10:30:55.944Z,90.57
2023-01-09T10:34:08.128Z,90.16
2023-01-09T10:36:45.005Z,90.40
2023-01-09T10:39:26.201Z,90.40
2023-01-09T10:42:01.826Z,90.32
2023-01-09T10:45:16.127Z,89.83
2023-01-09T10:47:45.039Z,89.95
2023-01-09T10:50:26.953Z,90.02
2023-01-09T10:53:21.403Z,89.82
2023-01-09T10:55:55.390Z,89.62
2023-01-09T10:58:23.128Z,89.55
2023-01-09T11:00:58.863Z,89.74
2023-01-09T11:03:32.231Z,89.49
2023-01-09T11:06:08.432Z,89.29
2023-01-09T11:11:57.177Z,89.02
2023-01-09T11:14:31.761Z,89.05
2023-01-09T11:17:03.009Z,89.14
2023-01-09T11:19:33.290Z,89.15
2023-01-09T11:22:09.184Z,89.04
2023-01-09T11:24:36.209Z,89.16
2023-01-09T11:27:18.250Z,89.00
2023-01-09T11:30:07.049Z,89.06
2023-01-09T11:32:39.376Z,88.74
2023-01-09T11:35:07.965Z,88.32
2023-01-09T11:37:36.156Z,88.09
2023-01-09T11:40:05.955Z,88.17
2023-01-09T11:42:52.232Z,88.34
2023-01-09T11:46:00.638Z,87.86
2023-01-09T11:48:48.841Z,88.13
2023-01-09T11:51:22.140Z,88.23
2023-01-09T11:54:15.427Z,87.95
2023-01-09T11:56:42.722Z,87.91
2023-01-09T11:59:36.112Z,87.65
2023-01-09T12:02:22.422Z,87.50
2023-01-09T12:05:57.055Z,87.76
2023-01-09T12:09:03.292Z,87.78
2023-01-09T12:11:53.290Z,87.67
2023-01-09T12:14:49.710Z,88.00
2023-01-09T12:17:45.117Z,87.49
2023-01-09T12:20:25.621Z,87.67
2023-01-09T12:23:27.595Z,87.80
2023-01-09T12:26:01.082Z,87.92
2023-01-09T12:28:45.671Z,87.97
2023-01-09T12:31:58.114Z,87.63
2023-01-09T12:34:45.259Z,87.85
2023-01-09T12:38:04.720Z,87.92
2023-01-09T12:41:08.234Z,87.92
2023-01-09T12:44:19.776Z,87.94
2023-01-09T12:47:19.839Z,87.99
2023-01-09T12:50:01.181Z,88.00
2023-01-09T12:52:48.815Z,88.28
2023-01-09T12:55:20.375Z,88.16
2023-01-09T12:57:59.854Z,88.38
2023-01-09T13:00:39.940Z,88.51
2023-01-09T13:03:17.415Z,88.59
2023-01-09T13:08:52.636Z,88.58
2023-01-09T13:11:34.342Z,88.59
2023-01-09T13:14:46.473Z,88.40
2023-01-09T13:17:24.968Z,88.20
2023-01-09T13:19:53.896Z,88.45
2023-01-09T13:22:25.859Z,88.35
2023-01-09T13:25:19.724Z,88.46
2023-01-09T13:28:16.484Z,88.56
2023-01-09T13:30:58.949Z,88.66
2023-01-09T13:36:30.142Z,88.60
2023-01-09T13:39:00.139Z,88.43
2023-01-09T13:41:48.128Z,88.37
2023-01-09T13:44:19.070Z,88.27
2023-01-09T13:46:48.737Z,88.22
2023-01-09T13:49:47.931Z,88.45
2023-01-09T13:52:26.071Z,88.38
2023-01-09T13:55:00.254Z,88.27
2023-01-09T13:58:04.352Z,88.25
2023-01-09T14:00:34.881Z,88.27
2023-01-09T14:03:08.254Z,88.38
2023-01-09T14:05:36.158Z,88.49
2023-01-09T14:08:10.687Z,88.26
2023-01-09T14:10:48.596Z,88.41
2023-01-09T14:13:45.329Z,88.10
2023-01-09T14:16:15.155Z,88.33
2023-01-09T14:18:52.157Z,88.47
2023-01-09T14:21:20.568Z,88.14
2023-01-09T14:24:06.198Z,88.17
2023-01-09T14:26:50.073Z,88.13
2023-01-09T14:29:39.561Z,88.22
2023-01-09T14:32:23.614Z,88.33
2023-01-09T14:34:57.299Z,88.39
2023-01-09T14:37:27.187Z,88.28
2023-01-09T14:39:55.412Z,88.36
2023-01-09T14:42:26.079Z,88.40
2023-01-09T14:45:00.843Z,88.15
2023-01-09T14:47:31.064Z,88.80
2023-01-09T14:50:13.783Z,88.61
2023-01-09T14:52:49.848Z,88.41
2023-01-09T14:55:30.090Z,88.30
2023-01-09T14:58:11.043Z,88.43
2023-01-09T15:04:02.469Z,88.65
2023-01-09T15:06:36.004Z,88.69
2023-01-09T15:09:21.965Z,88.37
2023-01-09T15:11:51.256Z,88.36
2023-01-09T15:14:39.910Z,88.35
2023-01-09T15:17:20.055Z,88.40
2023-01-09T15:19:48.498Z,88.31
2023-01-09T15:22:32.382Z,88.35
2023-01-09T15:25:38.510Z,88.85
2023-01-09T15:29:01.622Z,88.48
2023-01-09T15:31:34.295Z,88.52
2023-01-09T15:36:54.481Z,88.29
2023-01-09T15:39:31.267Z,88.16
2023-01-09T15:42:50.606Z,88.35
2023-01-09T15:45:23.877Z,89.35
2023-01-09T15:48:30.570Z,88.86
2023-01-09T15:51:04.663Z,88.87
2023-01-09T15:53:37.362Z,88.55
2023-01-09T15:56:50.589Z,88.43
2023-01-09T15:59:29.606Z,88.30
2023-01-09T16:02:22.532Z,88.57
2023-01-09T16:04:52.631Z,88.36
2023-01-09T16:07:21.141Z,88.36
2023-01-09T16:12:44.162Z,88.95
2023-01-09T16:15:17.923Z,88.63
2023-01-09T16:18:18.280Z,88.69
2023-01-09T16:20:46.487Z,88.92
2023-01-09T16:23:32.689Z,88.94
2023-01-09T16:26:12.059Z,88.78
2023-01-09T16:28:43.026Z,88.65
2023-01-09T16:31:33.546Z,88.55
2023-01-09T16:34:26.480Z,88.72
2023-01-09T16:36:54.374Z,88.58
2023-01-09T16:39:22.129Z,88.58
2023-01-09T16:42:08.846Z,88.44
2023-01-09T16:44:41.537Z,88.52
2023-01-09T16:47:12.274Z,88.34
2023-01-09T16:52:32.091Z,88.38
2023-01-09T16:55:00.113Z,88.57
2023-01-09T16:57:28.165Z,88.44
2023-01-09T17:00:05.973Z,88.32
2023-01-09T17:02:34.166Z,88.22
2023-01-09T17:05:06.522Z,88.24
2023-01-09T17:07:34.461Z,88.54
2023-01-09T17:10:38.326Z,88.24
2023-01-09T17:13:06.821Z,88.13
2023-01-09T17:15:34.159Z,88.23
2023-01-09T17:18:04.054Z,88.37
2023-01-09T17:20:58.765Z,88.34
2023-01-09T17:23:31.159Z,88.20
2023-01-09T17:26:20.730Z,88.20
2023-01-09T17:28:51.603Z,88.20
2023-01-09T17:31:27.240Z,88.09
2023-01-09T17:33:54.192Z,88.07
2023-01-09T17:36:32.146Z,88.11
2023-01-09T17:39:24.291Z,88.12
2023-01-09T17:44:49.236Z,88.01
2023-01-09T17:47:16.455Z,88.17
2023-01-09T17:49:44.213Z,88.16
2023-01-09T17:52:12.374Z,88.24
2023-01-09T17:54:40.539Z,88.21
2023-01-09T18:00:11.993Z,88.20
2023-01-09T18:02:40.269Z,88.33
2023-01-09T18:08:05.360Z,88.76
2023-01-09T18:10:32.134Z,89.26
2023-01-09T18:13:00.191Z,88.71
2023-01-09T18:15:52.181Z,88.56
2023-01-09T18:18:22.325Z,88.46
2023-01-09T18:20:59.275Z,88.40
2023-01-09T18:23:28.117Z,88.55
2023-01-09T18:25:56.140Z,88.40
2023-01-09T18:28:28.167Z,88.77
2023-01-09T18:30:56.239Z,88.68
2023-01-09T18:33:29.108Z,88.65
2023-01-09T18:35:56.264Z,89.11
2023-01-09T18:38:26.326Z,88.95
2023-01-09T18:40:59.106Z,88.75
2023-01-09T18:43:26.158Z,88.66
2023-01-09T18:45:54.216Z,88.68
2023-01-09T18:51:40.218Z,88.74
2023-01-09T18:54:18.239Z,88.91
2023-01-09T18:56:46.209Z,89.00
2023-01-09T18:59:14.175Z,88.82
2023-01-09T19:02:21.586Z,88.65
2023-01-09T19:04:50.367Z,88.85
2023-01-09T19:07:18.279Z,88.93
2023-01-09T19:09:50.326Z,88.77
2023-01-09T19:12:18.080Z,88.67
2023-01-09T19:14:55.164Z,88.83
2023-01-09T19:17:22.134Z,89.14
2023-01-09T19:19:50.257Z,89.14
2023-01-09T19:22:19.479Z,88.98
2023-01-09T19:24:52.198Z,89.25
2023-01-09T19:27:20.057Z,88.87
2023-01-09T19:29:48.146Z,88.83
2023-01-09T19:32:16.184Z,88.70
2023-01-09T19:34:44.106Z,88.99
2023-01-09T19:37:13.229Z,89.31
2023-01-09T19:39:45.167Z,88.80
2023-01-09T19:42:13.269Z,88.62
2023-01-09T19:44:40.689Z,89.29
2023-01-09T19:47:08.248Z,88.92
2023-01-09T19:49:36.370Z,88.79
2023-01-09T19:52:04.336Z,88.81
2023-01-09T19:54:32.863Z,88.92
2023-01-09T19:57:26.184Z,88.78
2023-01-09T19:59:54.147Z,89.01
2023-01-09T20:02:27.838Z,89.20
2023-01-09T20:07:53.194Z,89.26
2023-01-09T20:10:20.222Z,89.03
2023-01-09T20:12:48.499Z,88.75
2023-01-09T20:15:22.852Z,88.72
2023-01-09T20:17:50.120Z,89.07
2023-01-09T20:22:44.093Z,88.93
2023-01-09T20:25:42.652Z,88.91
2023-01-09T20:28:42.346Z,88.79
2023-01-09T20:31:17.729Z,88.80
2023-01-09T20:34:17.700Z,89.95
2023-01-09T20:36:47.341Z,89.92
2023-01-09T20:39:20.360Z,89.59
2023-01-09T20:41:48.321Z,89.35
2023-01-09T20:47:35.873Z,89.17
2023-01-09T20:50:04.652Z,89.63
2023-01-09T20:52:37.665Z,89.52
2023-01-09T20:55:09.771Z,89.19
2023-01-09T20:57:38.264Z,89.42
2023-01-09T21:05:52.665Z,89.89
2023-01-09T21:08:28.451Z,89.61
2023-01-09T21:13:52.706Z,90.19
2023-01-09T21:16:30.963Z,89.43
2023-01-09T21:19:06.851Z,89.09
2023-01-09T21:21:53.834Z,89.01
2023-01-09T21:24:34.782Z,88.87
2023-01-09T21:27:06.221Z,89.20
2023-01-09T21:29:45.132Z,89.15
2023-01-09T21:32:24.497Z,89.36
2023-01-09T21:34:56.371Z,89.53
2023-01-09T21:37:51.479Z,89.82
2023-01-09T21:41:07.016Z,89.65
2023-01-09T21:43:53.404Z,89.90
2023-01-09T21:46:42.991Z,89.74
2023-01-09T21:49:24.824Z,90.46
2023-01-09T21:52:07.645Z,90.55
2023-01-09T21:57:34.747Z,90.37
2023-01-09T22:00:13.175Z,90.03
2023-01-09T22:02:43.697Z,90.03
2023-01-09T22:05:37.137Z,90.48
2023-01-09T22:08:09.329Z,90.42
2023-01-09T22:10:36.362Z,90.30
2023-01-09T22:13:24.836Z,91.18
2023-01-09T22:16:04.806Z,90.91
2023-01-09T22:18:37.310Z,90.64
2023-01-09T22:21:04.584Z,90.75
2023-01-09T22:23:32.591Z,90.45
2023-01-09T22:26:11.616Z,90.34
2023-01-09T22:28:41.503Z,90.88
2023-01-09T22:31:12.040Z,90.64
2023-01-09T22:34:04.663Z,90.41
2023-01-09T22:36:37.778Z,90.26
2023-01-09T22:39:06.618Z,90.49
2023-01-09T22:41:34.448Z,90.94
2023-01-09T22:44:07.634Z,90.50
2023-01-09T22:49:41.186Z,90.03
2023-01-09T22:55:40.641Z,90.45
2023-01-09T22:58:13.407Z,90.99
2023-01-09T23:00:47.469Z,90.34
2023-01-09T23:03:16.535Z,90.07
2023-01-09T23:05:44.707Z,90.77
2023-01-09T23:11:37.723Z,90.97
2023-01-09T23:14:06.737Z,90.93
2023-01-09T23:16:34.393Z,90.86
2023-01-09T23:19:06.303Z,90.83
2023-01-09T23:21:34.433Z,90.84
2023-01-09T23:24:53.530Z,90.71
2023-01-09T23:27:22.165Z,90.92
2023-01-09T23:29:59.270Z,90.56
2023-01-09T23:32:26.488Z,90.67
2023-01-09T23:37:53.377Z,90.32
2023-01-09T23:40:22.387Z,90.08
2023-01-09T23:43:08.906Z,89.82
2023-01-09T23:45:41.696Z,90.00
2023-01-09T23:48:39.471Z,90.62
2023-01-09T23:51:08.408Z,90.58
2023-01-09T23:53:38.261Z,90.60
2023-01-09T23:56:08.706Z,90.74
2023-01-09T23:58:38.307Z,90.87
